createdAt,value
2017-04-28T00:01:36.972Z,80.90
2017-04-28T00:04:06.133Z,81.50
2017-04-28T00:06:35.338Z,81.60
2017-04-28T00:09:03.821Z,81.80
2017-04-28T00:11:32.988Z,81.80
2017-04-28T00:14:01.849Z,82.40
2017-04-28T00:16:31.026Z,83.10
2017-04-28T00:19:00.188Z,81.80
2017-04-28T00:21:29.780Z,82.90
2017-04-28T00:23:58.603Z,81.80
2017-04-28T00:26:27.774Z,82.00
2017-04-28T00:28:56.970Z,82.70
2017-04-28T00:31:26.146Z,83.40
2017-04-28T00:33:55.318Z,81.70
2017-04-28T00:36:24.526Z,83.60
2017-04-28T00:38:53.684Z,82.40
2017-04-28T00:41:23.608Z,82.70
2017-04-28T00:43:52.468Z,82.20
2017-04-28T00:46:21.637Z,83.80
2017-04-28T00:48:50.813Z,84.10
2017-04-28T00:51:20.008Z,85.00
2017-04-28T00:53:49.399Z,84.10
2017-04-28T00:56:18.571Z,83.70
2017-04-28T00:58:47.769Z,85.60
2017-04-28T01:01:16.816Z,85.00
2017-04-28T01:03:45.637Z,85.70
2017-04-28T01:06:14.846Z,85.70
2017-04-28T01:08:44.019Z,84.80
2017-04-28T01:11:12.850Z,85.20
2017-04-28T01:13:42.783Z,85.00
2017-04-28T01:16:11.961Z,85.30
2017-04-28T01:18:41.895Z,85.30
2017-04-28T01:21:11.845Z,85.10
2017-04-28T01:23:41.019Z,83.70
2017-04-28T01:26:10.181Z,85.60
2017-04-28T01:28:39.389Z,85.70
2017-04-28T01:31:08.360Z,84.80
2017-04-28T01:33:37.525Z,85.00
2017-04-28T01:36:06.373Z,84.50
2017-04-28T01:38:36.291Z,84.70
2017-04-28T01:41:06.229Z,84.50
2017-04-28T01:43:35.404Z,85.30
2017-04-28T01:46:05.321Z,84.90
2017-04-28T01:48:34.546Z,84.70
2017-04-28T01:51:03.373Z,84.40
2017-04-28T01:53:32.541Z,85.40
2017-04-28T01:56:01.736Z,85.20
2017-04-28T01:58:30.915Z,85.60
2017-04-28T02:01:00.128Z,85.70
2017-04-28T02:03:28.981Z,86.10
2017-04-28T02:05:58.025Z,86.10
2017-04-28T02:08:27.466Z,85.50
2017-04-28T02:10:56.326Z,86.30
2017-04-28T02:13:25.492Z,86.00
2017-04-28T02:15:55.412Z,86.10
2017-04-28T02:18:25.350Z,85.30
2017-04-28T02:20:54.529Z,86.30
2017-04-28T02:23:24.458Z,85.70
2017-04-28T02:25:53.653Z,85.50
2017-04-28T02:28:23.561Z,84.90
2017-04-28T02:30:53.158Z,85.00
2017-04-28T02:33:23.081Z,85.70
2017-04-28T02:35:53.016Z,85.60
2017-04-28T02:38:21.841Z,84.40
2017-04-28T02:40:51.010Z,84.90
2017-04-28T02:43:20.209Z,85.30
2017-04-28T02:45:49.029Z,85.50
2017-04-28T02:48:18.205Z,85.80
2017-04-28T02:50:47.397Z,85.50
2017-04-28T02:53:16.576Z,85.90
2017-04-28T02:55:46.145Z,86.00
2017-04-28T02:58:15.038Z,86.00
2017-04-28T03:00:44.201Z,86.20
2017-04-28T03:03:13.516Z,85.80
2017-04-28T03:05:42.016Z,86.50
2017-04-28T03:08:11.114Z,86.80
2017-04-28T03:10:39.945Z,86.80
2017-04-28T03:13:09.882Z,87.10
2017-04-28T03:15:39.049Z,86.70
2017-04-28T03:18:08.421Z,87.00
2017-04-28T03:20:37.633Z,88.00
2017-04-28T03:23:06.831Z,87.90
2017-04-28T03:25:35.817Z,87.10
2017-04-28T03:28:05.010Z,87.20
2017-04-28T03:30:34.189Z,86.90
2017-04-28T03:33:03.005Z,88.10
2017-04-28T03:35:31.852Z,88.00
2017-04-28T03:38:01.025Z,87.30
2017-04-28T03:40:31.862Z,87.90
2017-04-28T03:43:01.775Z,88.00
2017-04-28T03:45:31.702Z,87.30
2017-04-28T03:48:01.638Z,88.40
2017-04-28T03:50:30.812Z,88.10
2017-04-28T03:53:00.735Z,88.40
2017-04-28T03:55:30.672Z,87.90
2017-04-28T03:57:59.837Z,87.60
2017-04-28T04:00:29.783Z,87.00
2017-04-28T04:02:58.661Z,87.20
2017-04-28T04:05:27.838Z,86.90
2017-04-28T04:07:57.003Z,87.10
2017-04-28T04:10:26.201Z,87.20
2017-04-28T04:12:55.373Z,87.00
2017-04-28T04:15:24.553Z,87.40
2017-04-28T04:17:54.492Z,86.60
2017-04-28T04:20:23.680Z,87.10
2017-04-28T04:22:52.875Z,87.50
2017-04-28T04:25:22.072Z,87.60
2017-04-28T04:27:51.233Z,87.60
2017-04-28T04:30:20.396Z,87.00
2017-04-28T04:32:49.597Z,87.00
2017-04-28T04:35:18.753Z,87.60
2017-04-28T04:37:49.746Z,86.20
2017-04-28T04:40:18.918Z,86.70
2017-04-28T04:42:48.094Z,86.30
2017-04-28T04:45:17.684Z,85.70
2017-04-28T04:47:46.845Z,84.60
2017-04-28T04:50:16.008Z,82.60
2017-04-28T04:52:45.198Z,78.60
2017-04-28T04:55:15.252Z,74.60
2017-04-28T04:57:44.429Z,72.80
2017-04-28T05:00:13.623Z,71.90
2017-04-28T05:02:42.257Z,71.00
2017-04-28T05:05:11.090Z,71.30
2017-04-28T05:07:41.021Z,70.40
2017-04-28T05:10:09.832Z,69.00
2017-04-28T05:12:38.662Z,68.00
2017-04-28T05:15:08.858Z,67.60
2017-04-28T05:17:38.031Z,66.10
2017-04-28T05:20:07.204Z,62.50
2017-04-28T05:22:37.133Z,62.70
2017-04-28T05:25:06.305Z,62.80
2017-04-28T05:27:36.452Z,63.80
2017-04-28T05:30:05.318Z,66.20
2017-04-28T05:32:34.139Z,65.20
2017-04-28T05:35:02.956Z,64.50
2017-04-28T05:37:32.150Z,61.50
2017-04-28T05:40:01.313Z,60.70
2017-04-28T05:42:30.680Z,58.50
2017-04-28T05:44:59.874Z,59.30
2017-04-28T05:47:29.041Z,62.00
2017-04-28T05:49:58.214Z,63.10
2017-04-28T05:52:28.153Z,64.80
2017-04-28T05:54:57.317Z,66.90
2017-04-28T05:57:27.245Z,66.80
2017-04-28T05:59:57.184Z,69.30
2017-04-28T06:02:26.344Z,70.80
2017-04-28T06:04:55.944Z,72.00
2017-04-28T06:07:24.798Z,73.30
2017-04-28T06:09:53.956Z,73.20
2017-04-28T06:12:23.888Z,74.00
2017-04-28T06:14:52.705Z,74.20
2017-04-28T06:17:21.874Z,74.30
2017-04-28T06:19:51.084Z,74.50
2017-04-28T06:22:19.909Z,75.70
2017-04-28T06:24:48.751Z,75.70
2017-04-28T06:27:17.574Z,76.00
2017-04-28T06:29:46.797Z,75.70
2017-04-28T06:32:15.988Z,75.70
2017-04-28T06:34:45.165Z,76.40
2017-04-28T06:37:13.990Z,75.70
2017-04-28T06:39:43.193Z,75.30
2017-04-28T06:42:12.008Z,75.00
2017-04-28T06:44:41.912Z,76.00
2017-04-28T06:47:11.854Z,75.60
2017-04-28T06:49:41.016Z,76.00
2017-04-28T06:52:10.426Z,75.20
2017-04-28T06:54:40.364Z,74.90
2017-04-28T06:57:09.532Z,73.20
2017-04-28T06:59:38.705Z,72.70
2017-04-28T07:02:07.553Z,72.30
2017-04-28T07:04:36.730Z,72.10
2017-04-28T07:07:06.650Z,73.30
2017-04-28T07:09:36.237Z,70.90
2017-04-28T07:12:05.414Z,72.00
2017-04-28T07:14:34.582Z,71.50
2017-04-28T07:17:03.433Z,70.70
2017-04-28T07:19:32.597Z,71.00
2017-04-28T07:22:01.425Z,71.70
2017-04-28T07:24:31.462Z,69.40
2017-04-28T07:27:01.368Z,69.00
2017-04-28T07:29:31.305Z,70.90
2017-04-28T07:32:00.474Z,70.50
2017-04-28T07:34:29.302Z,69.80
2017-04-28T07:36:58.515Z,69.20
2017-04-28T07:39:27.680Z,69.70
2017-04-28T07:41:57.626Z,68.60
2017-04-28T07:44:26.826Z,66.40
2017-04-28T07:46:55.997Z,67.10
2017-04-28T07:49:25.912Z,68.20
2017-04-28T07:51:55.844Z,69.30
2017-04-28T07:54:24.678Z,68.90
2017-04-28T07:56:53.851Z,69.00
2017-04-28T07:59:23.045Z,69.20
2017-04-28T08:01:52.212Z,69.20
2017-04-28T08:04:22.138Z,69.40
2017-04-28T08:06:51.342Z,69.60
2017-04-28T08:09:20.505Z,69.70
2017-04-28T08:11:49.669Z,70.10
2017-04-28T08:14:18.892Z,69.60
2017-04-28T08:16:48.060Z,68.80
2017-04-28T08:19:16.885Z,68.00
2017-04-28T08:21:46.085Z,67.40
2017-04-28T08:24:14.908Z,68.80
2017-04-28T08:26:44.086Z,67.80
2017-04-28T08:29:14.032Z,66.70
2017-04-28T08:31:43.202Z,65.90
2017-04-28T08:34:13.120Z,64.20
2017-04-28T08:36:43.294Z,66.20
2017-04-28T08:39:12.470Z,65.80
2017-04-28T08:41:41.653Z,67.80
2017-04-28T08:44:11.592Z,70.30
2017-04-28T08:46:40.757Z,71.80
2017-04-28T08:49:10.330Z,72.70
2017-04-28T08:51:39.177Z,73.80
2017-04-28T08:54:08.341Z,74.70
2017-04-28T08:56:37.506Z,75.20
2017-04-28T08:59:06.345Z,75.80
2017-04-28T09:01:36.256Z,77.80
2017-04-28T09:04:06.197Z,79.00
2017-04-28T09:06:35.365Z,79.90
2017-04-28T09:09:03.654Z,80.10
2017-04-28T09:11:33.585Z,81.70
2017-04-28T09:14:02.752Z,80.50
2017-04-28T09:16:31.913Z,81.20
2017-04-28T09:19:01.137Z,80.90
2017-04-28T09:21:30.306Z,80.80
2017-04-28T09:23:59.479Z,81.90
2017-04-28T09:26:28.677Z,82.10
2017-04-28T09:28:57.849Z,79.70
2017-04-28T09:31:27.026Z,82.10
2017-04-28T09:33:56.231Z,82.00
2017-04-28T09:36:25.408Z,80.50
2017-04-28T09:38:54.577Z,79.80
2017-04-28T09:41:23.773Z,78.80
2017-04-28T09:43:52.949Z,79.10
2017-04-28T09:46:23.893Z,79.40
2017-04-28T09:48:53.078Z,76.80
2017-04-28T09:51:22.265Z,75.70
2017-04-28T09:53:51.122Z,76.30
2017-04-28T09:56:20.288Z,75.90
2017-04-28T09:58:49.856Z,76.20
2017-04-28T10:01:19.065Z,75.00
2017-04-28T10:03:48.232Z,74.60
2017-04-28T10:06:17.062Z,74.50
2017-04-28T10:08:46.257Z,74.30
2017-04-28T10:11:15.424Z,73.90
2017-04-28T10:13:44.600Z,73.80
2017-04-28T10:16:13.807Z,73.90
2017-04-28T10:18:42.974Z,73.10
2017-04-28T10:21:12.914Z,72.70
2017-04-28T10:23:42.089Z,73.30
2017-04-28T10:26:12.009Z,71.00
2017-04-28T10:28:40.097Z,71.00
2017-04-28T10:31:08.572Z,71.20
2017-04-28T10:33:37.746Z,71.60
2017-04-28T10:36:07.685Z,72.10
2017-04-28T10:38:36.858Z,69.90
2017-04-28T10:41:06.781Z,70.70
2017-04-28T10:43:36.720Z,68.50
2017-04-28T10:46:05.544Z,65.00
2017-04-28T10:48:34.713Z,64.20
2017-04-28T10:51:03.918Z,62.10
2017-04-28T10:53:33.090Z,62.70
2017-04-28T10:56:03.009Z,62.60
2017-04-28T10:58:32.609Z,62.40
2017-04-28T11:01:02.174Z,63.10
2017-04-28T11:03:31.349Z,60.80
2017-04-28T11:06:00.558Z,61.40
2017-04-28T11:08:29.733Z,59.20
2017-04-28T11:10:58.910Z,60.50
2017-04-28T11:13:28.853Z,61.80
2017-04-28T11:15:58.031Z,65.20
2017-04-28T11:18:27.956Z,63.80
2017-04-28T11:20:57.436Z,60.60
2017-04-28T11:23:26.598Z,61.90
2017-04-28T11:25:55.769Z,62.50
2017-04-28T11:28:24.972Z,64.10
2017-04-28T11:30:54.140Z,65.20
2017-04-28T11:33:24.066Z,62.10
2017-04-28T11:35:54.025Z,62.10
2017-04-28T11:38:23.188Z,61.40
2017-04-28T11:40:52.366Z,61.40
2017-04-28T11:43:22.311Z,61.50
2017-04-28T11:45:51.476Z,61.10
2017-04-28T11:48:20.304Z,58.90
2017-04-28T11:50:49.141Z,57.80
2017-04-28T11:53:18.313Z,57.10
2017-04-28T11:55:47.509Z,57.00
2017-04-28T11:58:16.684Z,56.50
2017-04-28T12:00:45.853Z,56.60
2017-04-28T12:03:15.785Z,58.10
2017-04-28T12:05:45.692Z,55.90
2017-04-28T12:08:15.644Z,56.50
2017-04-28T12:10:44.833Z,56.70
2017-04-28T12:13:13.661Z,56.80
2017-04-28T12:15:42.862Z,59.30
2017-04-28T12:18:12.032Z,56.50
2017-04-28T12:20:41.201Z,55.40
2017-04-28T12:23:11.141Z,55.50
2017-04-28T12:25:40.697Z,56.70
2017-04-28T12:28:09.861Z,53.80
2017-04-28T12:30:39.065Z,56.10
2017-04-28T12:33:08.236Z,57.40
2017-04-28T12:35:37.405Z,53.60
2017-04-28T12:38:07.350Z,54.10
2017-04-28T12:40:36.796Z,53.30
2017-04-28T12:43:05.960Z,52.70
2017-04-28T12:45:35.157Z,50.70
2017-04-28T12:48:04.333Z,48.70
2017-04-28T12:50:34.269Z,51.50
2017-04-28T12:53:04.442Z,52.90
2017-04-28T12:55:33.634Z,53.30
2017-04-28T12:58:02.817Z,52.10
2017-04-28T13:00:31.989Z,50.20
2017-04-28T13:03:01.169Z,52.90
2017-04-28T13:05:31.137Z,53.30
2017-04-28T13:07:59.970Z,52.80
2017-04-28T13:10:29.882Z,53.20
2017-04-28T13:12:59.921Z,53.80
2017-04-28T13:15:29.101Z,54.40
2017-04-28T13:17:59.020Z,53.00
2017-04-28T13:20:28.940Z,52.00
2017-04-28T13:22:58.909Z,51.30
2017-04-28T13:25:28.084Z,53.10
2017-04-28T13:27:57.302Z,53.90
2017-04-28T13:30:26.473Z,54.10
2017-04-28T13:32:55.645Z,55.10
2017-04-28T13:35:25.580Z,55.10
2017-04-28T13:37:54.745Z,54.50
2017-04-28T13:40:23.920Z,54.60
2017-04-28T13:42:53.117Z,54.10
2017-04-28T13:45:22.288Z,49.50
2017-04-28T13:47:51.113Z,50.40
2017-04-28T13:50:19.957Z,52.70
2017-04-28T13:52:49.126Z,52.00
2017-04-28T13:55:18.306Z,49.10
2017-04-28T13:57:47.508Z,49.70
2017-04-28T14:00:16.324Z,51.80
2017-04-28T14:02:46.228Z,53.30
2017-04-28T14:05:15.467Z,51.20
2017-04-28T14:07:44.634Z,51.40
2017-04-28T14:10:14.563Z,52.60
2017-04-28T14:12:44.156Z,52.10
2017-04-28T14:15:14.094Z,52.30
2017-04-28T14:17:43.317Z,53.50
2017-04-28T14:20:12.525Z,52.70
2017-04-28T14:22:41.702Z,52.50
2017-04-28T14:25:10.872Z,52.00
2017-04-28T14:27:40.817Z,52.80
2017-04-28T14:30:09.977Z,55.40
2017-04-28T14:32:39.144Z,56.90
2017-04-28T14:35:07.997Z,58.30
2017-04-28T14:37:37.170Z,58.50
2017-04-28T14:40:07.097Z,59.40
2017-04-28T14:42:36.698Z,59.70
2017-04-28T14:45:06.608Z,61.40
2017-04-28T14:47:35.789Z,66.10
2017-04-28T14:50:05.269Z,67.60
2017-04-28T14:52:34.445Z,72.10
2017-04-28T14:55:03.632Z,74.80
2017-04-28T14:57:32.494Z,73.50
2017-04-28T15:00:01.658Z,74.70
2017-04-28T15:02:30.829Z,72.80
2017-04-28T15:05:00.044Z,76.30
2017-04-28T15:07:29.217Z,73.50
2017-04-28T15:09:58.389Z,75.80
2017-04-28T15:12:27.596Z,74.80
2017-04-28T15:14:57.780Z,73.60
2017-04-28T15:17:26.980Z,73.50
2017-04-28T15:19:56.149Z,72.90
2017-04-28T15:22:25.323Z,72.00
2017-04-28T15:24:55.270Z,71.20
2017-04-28T15:27:24.449Z,69.60
2017-04-28T15:29:53.621Z,69.40
2017-04-28T15:32:22.825Z,68.30
2017-04-28T15:34:52.413Z,65.00
2017-04-28T15:37:21.577Z,64.00
2017-04-28T15:39:50.698Z,65.90
2017-04-28T15:42:19.873Z,63.50
2017-04-28T15:44:49.042Z,64.50
2017-04-28T15:47:18.969Z,64.00
2017-04-28T15:49:48.128Z,62.60
2017-04-28T15:52:17.294Z,61.10
2017-04-28T15:54:46.491Z,59.30
2017-04-28T15:57:15.304Z,58.60
2017-04-28T15:59:44.477Z,58.00
2017-04-28T16:02:13.685Z,58.40
2017-04-28T16:04:42.853Z,59.40
2017-04-28T16:07:12.021Z,58.60
2017-04-28T16:09:41.963Z,58.20
2017-04-28T16:12:11.125Z,57.60
2017-04-28T16:14:40.284Z,59.60
2017-04-28T16:17:09.159Z,61.70
2017-04-28T16:19:38.309Z,61.20
2017-04-28T16:22:07.147Z,61.70
2017-04-28T16:24:36.337Z,60.80
2017-04-28T16:27:04.821Z,62.00
2017-04-28T16:29:33.985Z,62.90
2017-04-28T16:32:03.180Z,62.20
2017-04-28T16:34:32.013Z,62.00
2017-04-28T16:37:01.177Z,62.90
2017-04-28T16:39:30.800Z,62.80
2017-04-28T16:42:00.362Z,64.50
2017-04-28T16:44:29.528Z,65.20
2017-04-28T16:46:58.386Z,65.80
2017-04-28T16:49:28.295Z,65.80
2017-04-28T16:51:58.228Z,65.40
2017-04-28T16:54:27.877Z,65.90
2017-04-28T16:56:57.043Z,67.30
2017-04-28T16:59:26.238Z,67.30
2017-04-28T17:01:56.145Z,64.80
2017-04-28T17:04:26.086Z,63.80
2017-04-28T17:06:55.244Z,64.40
2017-04-28T17:09:24.404Z,65.40
2017-04-28T17:11:53.602Z,64.70
2017-04-28T17:14:22.774Z,65.00
2017-04-28T17:16:51.592Z,64.70
2017-04-28T17:19:20.784Z,65.30
2017-04-28T17:21:49.940Z,65.10
2017-04-28T17:24:19.905Z,65.70
2017-04-28T17:26:49.067Z,66.10
2017-04-28T17:29:18.237Z,67.20
2017-04-28T17:31:47.444Z,67.40
2017-04-28T17:34:17.345Z,69.00
2017-04-28T17:36:46.530Z,68.00
2017-04-28T17:39:15.618Z,67.50
2017-04-28T17:41:44.439Z,68.40
2017-04-28T17:44:13.600Z,67.90
2017-04-28T17:46:43.433Z,67.70
2017-04-28T17:49:12.595Z,68.00
2017-04-28T17:51:41.877Z,69.70
2017-04-28T17:54:11.073Z,70.30
2017-04-28T17:56:40.242Z,71.30
2017-04-28T17:59:09.409Z,71.00
2017-04-28T18:01:38.248Z,71.10
2017-04-28T18:04:07.808Z,71.30
2017-04-28T18:06:37.217Z,71.80
2017-04-28T18:09:06.419Z,72.60
2017-04-28T18:11:35.236Z,72.90
2017-04-28T18:14:04.408Z,72.40
2017-04-28T18:16:33.609Z,73.20
2017-04-28T18:19:02.764Z,73.50
2017-04-28T18:21:31.930Z,73.50
2017-04-28T18:24:01.136Z,73.30
2017-04-28T18:26:30.726Z,74.50
2017-04-28T18:29:01.191Z,73.90
2017-04-28T18:31:30.348Z,73.50
2017-04-28T18:33:59.165Z,74.50
2017-04-28T18:36:28.798Z,75.30
2017-04-28T18:38:57.962Z,75.30
2017-04-28T18:41:27.145Z,76.60
2017-04-28T18:43:56.342Z,78.50
2017-04-28T18:46:25.513Z,78.30
2017-04-28T18:48:54.677Z,79.20
2017-04-28T18:51:24.277Z,79.00
2017-04-28T18:53:54.210Z,79.30
2017-04-28T18:56:24.137Z,79.90
2017-04-28T18:58:53.569Z,80.80
2017-04-28T19:01:22.734Z,81.70
2017-04-28T19:03:51.986Z,81.30
2017-04-28T19:06:21.150Z,81.10
2017-04-28T19:08:50.308Z,80.80
2017-04-28T19:11:20.486Z,81.10
2017-04-28T19:13:49.644Z,81.00
2017-04-28T19:16:18.804Z,81.10
2017-04-28T19:18:47.992Z,81.50
2017-04-28T19:21:16.804Z,80.30
2017-04-28T19:23:45.621Z,81.20
2017-04-28T19:26:14.813Z,82.20
2017-04-28T19:28:44.708Z,80.30
2017-04-28T19:31:13.885Z,80.60
2017-04-28T19:33:43.110Z,80.90
2017-04-28T19:36:13.036Z,81.30
2017-04-28T19:38:42.967Z,81.60
2017-04-28T19:41:12.136Z,82.50
2017-04-28T19:43:41.305Z,83.00
2017-04-28T19:46:10.158Z,83.20
2017-04-28T19:48:39.349Z,83.90
2017-04-28T19:51:08.523Z,83.60
2017-04-28T19:53:37.722Z,83.70
2017-04-28T19:56:06.890Z,84.00
2017-04-28T19:58:36.102Z,85.10
2017-04-28T20:01:04.966Z,85.80
2017-04-28T20:03:34.128Z,86.00
2017-04-28T20:06:04.053Z,86.10
2017-04-28T20:08:33.240Z,86.30
2017-04-28T20:11:03.160Z,86.50
2017-04-28T20:13:33.100Z,86.30
2017-04-28T20:16:02.293Z,87.00
2017-04-28T20:18:31.466Z,88.00
2017-04-28T20:21:01.604Z,88.50
2017-04-28T20:23:30.801Z,88.20
2017-04-28T20:25:59.964Z,88.00
2017-04-28T20:28:29.141Z,88.30
2017-04-28T20:30:57.991Z,88.30
2017-04-28T20:33:27.401Z,88.40
2017-04-28T20:35:56.565Z,88.50
2017-04-28T20:38:25.449Z,88.20
2017-04-28T20:40:54.621Z,88.40
2017-04-28T20:43:23.841Z,88.80
2017-04-28T20:45:52.849Z,88.10
2017-04-28T20:48:21.674Z,88.10
2017-04-28T20:50:50.537Z,88.40
2017-04-28T20:53:20.152Z,87.90
2017-04-28T20:55:49.709Z,87.80
2017-04-28T20:58:18.878Z,87.60
2017-04-28T21:00:47.753Z,88.20
2017-04-28T21:03:17.539Z,88.20
2017-04-28T21:05:46.707Z,88.00
2017-04-28T21:08:15.901Z,88.50
2017-04-28T21:10:45.065Z,88.10
2017-04-28T21:13:14.241Z,87.40
2017-04-28T21:15:43.656Z,86.60
2017-04-28T21:18:13.220Z,86.40
2017-04-28T21:20:42.270Z,85.80
2017-04-28T21:23:11.130Z,85.90
2017-04-28T21:25:40.648Z,85.90
2017-04-28T21:28:09.474Z,86.10
2017-04-28T21:30:38.669Z,86.80
2017-04-28T21:33:07.492Z,87.40
2017-04-28T21:35:36.686Z,87.40
2017-04-28T21:38:05.885Z,87.50
2017-04-28T21:40:35.054Z,87.20
2017-04-28T21:43:03.879Z,87.10
2017-04-28T21:45:33.076Z,86.60
2017-04-28T21:48:02.250Z,86.90
2017-04-28T21:50:31.418Z,85.90
2017-04-28T21:53:01.362Z,86.30
2017-04-28T21:55:30.534Z,86.30
2017-04-28T21:58:00.484Z,86.40
2017-04-28T22:00:29.326Z,86.40
2017-04-28T22:02:58.165Z,86.00
2017-04-28T22:05:27.335Z,85.50
2017-04-28T22:07:57.289Z,85.10
2017-04-28T22:10:26.463Z,84.20
2017-04-28T22:12:55.624Z,84.50
2017-04-28T22:15:39.910Z,85.20
2017-04-28T22:18:08.733Z,84.60
2017-04-28T22:20:37.566Z,84.80
2017-04-28T22:23:07.504Z,85.60
2017-04-28T22:25:36.678Z,84.00
2017-04-28T22:28:06.601Z,82.80
2017-04-28T22:30:36.234Z,82.30
2017-04-28T22:33:05.396Z,82.20
2017-04-28T22:35:34.560Z,80.60
2017-04-28T22:38:03.758Z,79.60
2017-04-28T22:40:32.580Z,78.60
2017-04-28T22:43:01.741Z,78.70
2017-04-28T22:45:30.590Z,77.90
2017-04-28T22:48:00.498Z,76.90
2017-04-28T22:50:30.451Z,77.60
2017-04-28T22:52:59.614Z,76.50
2017-04-28T22:55:29.531Z,77.50
2017-04-28T22:57:58.738Z,77.40
2017-04-28T23:00:28.659Z,76.50
2017-04-28T23:02:57.869Z,77.80
2017-04-28T23:05:27.089Z,77.20
2017-04-28T23:07:56.249Z,76.80
2017-04-28T23:10:26.174Z,76.20
2017-04-28T23:12:55.017Z,76.50
2017-04-28T23:15:24.190Z,76.90
2017-04-28T23:17:53.012Z,76.70
2017-04-28T23:20:22.224Z,76.40
2017-04-28T23:22:51.294Z,76.70
2017-04-28T23:25:20.457Z,76.60
2017-04-28T23:27:49.662Z,76.80
2017-04-28T23:30:18.816Z,77.00
2017-04-28T23:32:47.635Z,76.40
2017-04-28T23:35:16.829Z,76.50
2017-04-28T23:37:46.393Z,77.20
2017-04-28T23:40:15.566Z,76.90
2017-04-28T23:42:44.780Z,76.80
2017-04-28T23:45:13.950Z,77.00
2017-04-28T23:47:43.118Z,76.80
2017-04-28T23:50:13.059Z,76.90
2017-04-28T23:52:42.325Z,77.80
2017-04-28T23:55:11.496Z,77.60
2017-04-28T23:57:40.706Z,78.30
